METAR Data
IDs: Format: Raw Decoded Include TAF

Data at: 1332 UTC 26 Feb 2021

EHAM 261325Z 30014KT 9999 FEW023 09/03 Q1035 NOSIG